sensor_id;sensor_type;location;lat;lon;timestamp;P1;durP1;ratioP1;P2;durP2;ratioP2
3343;SDS011;1685;53.104;8.228;2023-04-03T00:01:42;1.83;;;1.73;;
3343;SDS011;1685;53.104;8.228;2023-04-03T00:04:09;2.60;;;1.60;;
3343;SDS011;1685;53.104;8.228;2023-04-03T00:06:36;2.00;;;1.77;;
3343;SDS011;1685;53.104;8.228;2023-04-03T00:09:03;3.47;;;2.10;;
3343;SDS011;1685;53.104;8.228;2023-04-03T00:11:31;1.90;;;1.80;;
3343;SDS011;1685;53.104;8.228;2023-04-03T00:13:58;5.40;;;1.97;;
3343;SDS011;1685;53.104;8.228;2023-04-03T00:16:25;2.23;;;2.07;;
3343;SDS011;1685;53.104;8.228;2023-04-03T00:18:52;4.77;;;2.13;;
3343;SDS011;1685;53.104;8.228;2023-04-03T00:21:18;5.80;;;2.20;;
3343;SDS011;1685;53.104;8.228;2023-04-03T00:23:45;5.10;;;2.47;;
3343;SDS011;1685;53.104;8.228;2023-04-03T00:26:13;4.10;;;2.27;;
3343;SDS011;1685;53.104;8.228;2023-04-03T00:28:41;6.97;;;2.00;;
3343;SDS011;1685;53.104;8.228;2023-04-03T00:31:08;3.80;;;2.50;;
3343;SDS011;1685;53.104;8.228;2023-04-03T00:33:35;2.20;;;2.00;;
3343;SDS011;1685;53.104;8.228;2023-04-03T00:36:05;7.87;;;2.47;;
3343;SDS011;1685;53.104;8.228;2023-04-03T00:38:32;3.37;;;2.47;;
3343;SDS011;1685;53.104;8.228;2023-04-03T00:41:00;3.40;;;2.30;;
3343;SDS011;1685;53.104;8.228;2023-04-03T00:43:26;5.47;;;2.77;;
3343;SDS011;1685;53.104;8.228;2023-04-03T00:45:55;2.50;;;1.90;;
3343;SDS011;1685;53.104;8.228;2023-04-03T00:48:24;2.40;;;2.17;;
3343;SDS011;1685;53.104;8.228;2023-04-03T00:50:54;2.30;;;2.10;;
3343;SDS011;1685;53.104;8.228;2023-04-03T00:53:22;2.60;;;2.40;;
3343;SDS011;1685;53.104;8.228;2023-04-03T00:55:51;3.83;;;2.33;;
3343;SDS011;1685;53.104;8.228;2023-04-03T00:58:20;4.90;;;2.10;;
3343;SDS011;1685;53.104;8.228;2023-04-03T01:00:53;2.43;;;2.07;;
3343;SDS011;1685;53.104;8.228;2023-04-03T01:03:24;3.77;;;2.20;;
3343;SDS011;1685;53.104;8.228;2023-04-03T01:05:51;2.30;;;1.90;;
3343;SDS011;1685;53.104;8.228;2023-04-03T01:08:18;8.57;;;2.97;;
3343;SDS011;1685;53.104;8.228;2023-04-03T01:10:45;2.60;;;2.30;;
3343;SDS011;1685;53.104;8.228;2023-04-03T01:13:23;2.43;;;2.20;;
3343;SDS011;1685;53.104;8.228;2023-04-03T01:15:51;2.30;;;1.97;;
3343;SDS011;1685;53.104;8.228;2023-04-03T01:18:19;2.60;;;2.40;;
3343;SDS011;1685;53.104;8.228;2023-04-03T01:23:49;6.23;;;2.17;;
3343;SDS011;1685;53.104;8.228;2023-04-03T01:26:22;3.80;;;2.13;;
3343;SDS011;1685;53.104;8.228;2023-04-03T01:28:50;4.87;;;2.90;;
3343;SDS011;1685;53.104;8.228;2023-04-03T01:31:21;3.17;;;2.37;;
3343;SDS011;1685;53.104;8.228;2023-04-03T01:33:52;3.27;;;2.33;;
3343;SDS011;1685;53.104;8.228;2023-04-03T01:36:20;3.63;;;2.40;;
3343;SDS011;1685;53.104;8.228;2023-04-03T01:38:49;5.23;;;2.50;;
3343;SDS011;1685;53.104;8.228;2023-04-03T01:41:16;2.30;;;2.20;;
3343;SDS011;1685;53.104;8.228;2023-04-03T01:43:43;6.27;;;2.33;;
3343;SDS011;1685;53.104;8.228;2023-04-03T01:46:10;13.67;;;2.77;;
3343;SDS011;1685;53.104;8.228;2023-04-03T01:48:37;2.70;;;2.50;;
3343;SDS011;1685;53.104;8.228;2023-04-03T01:51:05;5.27;;;2.27;;
3343;SDS011;1685;53.104;8.228;2023-04-03T01:53:32;2.30;;;2.10;;
3343;SDS011;1685;53.104;8.228;2023-04-03T01:55:59;3.33;;;3.03;;
3343;SDS011;1685;53.104;8.228;2023-04-03T01:58:26;7.80;;;2.90;;
3343;SDS011;1685;53.104;8.228;2023-04-03T02:00:53;3.80;;;3.03;;
3343;SDS011;1685;53.104;8.228;2023-04-03T02:03:20;4.23;;;2.30;;
3343;SDS011;1685;53.104;8.228;2023-04-03T02:05:48;2.50;;;2.30;;
3343;SDS011;1685;53.104;8.228;2023-04-03T02:08:17;2.73;;;2.50;;
3343;SDS011;1685;53.104;8.228;2023-04-03T02:10:43;8.47;;;2.23;;
3343;SDS011;1685;53.104;8.228;2023-04-03T02:13:11;3.60;;;2.57;;
3343;SDS011;1685;53.104;8.228;2023-04-03T02:15:38;9.20;;;2.90;;
3343;SDS011;1685;53.104;8.228;2023-04-03T02:18:05;5.13;;;2.80;;
3343;SDS011;1685;53.104;8.228;2023-04-03T02:20:32;5.70;;;2.00;;
3343;SDS011;1685;53.104;8.228;2023-04-03T02:22:59;2.60;;;2.27;;
3343;SDS011;1685;53.104;8.228;2023-04-03T02:25:28;3.93;;;2.70;;
3343;SDS011;1685;53.104;8.228;2023-04-03T02:27:56;6.93;;;2.40;;
3343;SDS011;1685;53.104;8.228;2023-04-03T02:30:23;7.67;;;2.57;;
3343;SDS011;1685;53.104;8.228;2023-04-03T02:32:50;2.83;;;2.50;;
3343;SDS011;1685;53.104;8.228;2023-04-03T02:35:17;4.40;;;2.90;;
3343;SDS011;1685;53.104;8.228;2023-04-03T02:37:44;2.53;;;2.33;;
3343;SDS011;1685;53.104;8.228;2023-04-03T02:40:11;3.33;;;2.53;;
3343;SDS011;1685;53.104;8.228;2023-04-03T02:42:39;7.70;;;2.50;;
3343;SDS011;1685;53.104;8.228;2023-04-03T02:45:06;8.23;;;2.50;;
3343;SDS011;1685;53.104;8.228;2023-04-03T02:47:34;4.03;;;2.20;;
3343;SDS011;1685;53.104;8.228;2023-04-03T02:50:00;3.67;;;2.60;;
3343;SDS011;1685;53.104;8.228;2023-04-03T02:52:28;4.40;;;1.90;;
3343;SDS011;1685;53.104;8.228;2023-04-03T02:54:55;2.30;;;2.03;;
3343;SDS011;1685;53.104;8.228;2023-04-03T02:57:22;4.33;;;3.93;;
3343;SDS011;1685;53.104;8.228;2023-04-03T02:59:50;4.10;;;2.40;;
3343;SDS011;1685;53.104;8.228;2023-04-03T03:02:17;5.07;;;2.27;;
3343;SDS011;1685;53.104;8.228;2023-04-03T03:04:44;4.37;;;3.13;;
3343;SDS011;1685;53.104;8.228;2023-04-03T03:07:11;4.80;;;2.80;;
3343;SDS011;1685;53.104;8.228;2023-04-03T03:09:38;2.60;;;2.50;;
3343;SDS011;1685;53.104;8.228;2023-04-03T03:12:05;4.33;;;2.70;;
3343;SDS011;1685;53.104;8.228;2023-04-03T03:14:32;14.93;;;3.47;;
3343;SDS011;1685;53.104;8.228;2023-04-03T03:17:00;2.93;;;2.10;;
3343;SDS011;1685;53.104;8.228;2023-04-03T03:19:27;6.90;;;2.60;;
3343;SDS011;1685;53.104;8.228;2023-04-03T03:21:54;2.07;;;1.83;;
3343;SDS011;1685;53.104;8.228;2023-04-03T03:24:22;2.40;;;2.20;;
3343;SDS011;1685;53.104;8.228;2023-04-03T03:26:48;8.70;;;2.47;;
3343;SDS011;1685;53.104;8.228;2023-04-03T03:29:15;6.60;;;2.30;;
3343;SDS011;1685;53.104;8.228;2023-04-03T03:31:42;7.40;;;2.60;;
3343;SDS011;1685;53.104;8.228;2023-04-03T03:34:10;3.93;;;2.20;;
3343;SDS011;1685;53.104;8.228;2023-04-03T03:36:37;3.20;;;2.40;;
3343;SDS011;1685;53.104;8.228;2023-04-03T03:39:05;7.03;;;2.40;;
3343;SDS011;1685;53.104;8.228;2023-04-03T03:41:32;4.70;;;2.47;;
3343;SDS011;1685;53.104;8.228;2023-04-03T03:43:58;4.57;;;1.90;;
3343;SDS011;1685;53.104;8.228;2023-04-03T03:46:26;3.03;;;2.60;;
3343;SDS011;1685;53.104;8.228;2023-04-03T03:48:52;6.27;;;2.37;;
3343;SDS011;1685;53.104;8.228;2023-04-03T03:51:20;6.10;;;2.40;;
3343;SDS011;1685;53.104;8.228;2023-04-03T03:53:47;4.20;;;2.90;;
3343;SDS011;1685;53.104;8.228;2023-04-03T03:56:14;6.20;;;3.20;;
3343;SDS011;1685;53.104;8.228;2023-04-03T03:58:41;2.57;;;2.20;;
3343;SDS011;1685;53.104;8.228;2023-04-03T04:01:08;2.73;;;2.53;;
3343;SDS011;1685;53.104;8.228;2023-04-03T04:03:35;6.10;;;3.70;;
3343;SDS011;1685;53.104;8.228;2023-04-03T04:06:02;3.77;;;2.90;;
3343;SDS011;1685;53.104;8.228;2023-04-03T04:08:30;3.70;;;2.27;;
3343;SDS011;1685;53.104;8.228;2023-04-03T04:10:57;2.87;;;2.60;;
3343;SDS011;1685;53.104;8.228;2023-04-03T04:13:24;2.60;;;2.50;;
3343;SDS011;1685;53.104;8.228;2023-04-03T04:15:51;9.90;;;3.20;;
3343;SDS011;1685;53.104;8.228;2023-04-03T04:18:18;3.27;;;2.87;;
3343;SDS011;1685;53.104;8.228;2023-04-03T04:20:47;3.83;;;3.00;;
3343;SDS011;1685;53.104;8.228;2023-04-03T04:23:14;7.00;;;2.77;;
3343;SDS011;1685;53.104;8.228;2023-04-03T04:25:43;8.73;;;3.27;;
3343;SDS011;1685;53.104;8.228;2023-04-03T04:28:10;5.00;;;3.97;;
3343;SDS011;1685;53.104;8.228;2023-04-03T04:30:37;8.43;;;5.20;;
3343;SDS011;1685;53.104;8.228;2023-04-03T04:33:04;16.30;;;5.07;;
3343;SDS011;1685;53.104;8.228;2023-04-03T04:35:31;8.47;;;5.47;;
3343;SDS011;1685;53.104;8.228;2023-04-03T04:37:58;10.53;;;5.10;;
3343;SDS011;1685;53.104;8.228;2023-04-03T04:40:26;11.30;;;6.37;;
3343;SDS011;1685;53.104;8.228;2023-04-03T04:42:54;14.73;;;6.50;;
3343;SDS011;1685;53.104;8.228;2023-04-03T04:45:21;7.80;;;4.40;;
3343;SDS011;1685;53.104;8.228;2023-04-03T04:47:48;6.67;;;4.30;;
3343;SDS011;1685;53.104;8.228;2023-04-03T04:50:16;7.40;;;3.77;;
3343;SDS011;1685;53.104;8.228;2023-04-03T04:52:43;6.70;;;4.20;;
3343;SDS011;1685;53.104;8.228;2023-04-03T04:55:10;7.10;;;3.90;;
3343;SDS011;1685;53.104;8.228;2023-04-03T04:57:37;8.53;;;4.07;;
3343;SDS011;1685;53.104;8.228;2023-04-03T05:00:08;4.90;;;3.27;;
3343;SDS011;1685;53.104;8.228;2023-04-03T05:02:35;4.30;;;3.23;;
3343;SDS011;1685;53.104;8.228;2023-04-03T05:05:02;5.80;;;3.17;;
3343;SDS011;1685;53.104;8.228;2023-04-03T05:07:29;4.20;;;3.00;;
3343;SDS011;1685;53.104;8.228;2023-04-03T05:09:56;6.67;;;3.47;;
3343;SDS011;1685;53.104;8.228;2023-04-03T05:12:22;5.43;;;2.60;;
3343;SDS011;1685;53.104;8.228;2023-04-03T05:14:49;2.67;;;2.50;;
3343;SDS011;1685;53.104;8.228;2023-04-03T05:17:17;5.60;;;2.60;;
3343;SDS011;1685;53.104;8.228;2023-04-03T05:19:44;5.10;;;2.90;;
3343;SDS011;1685;53.104;8.228;2023-04-03T05:22:11;6.43;;;3.40;;
3343;SDS011;1685;53.104;8.228;2023-04-03T05:24:38;5.27;;;2.57;;
3343;SDS011;1685;53.104;8.228;2023-04-03T05:27:05;3.23;;;2.93;;
3343;SDS011;1685;53.104;8.228;2023-04-03T05:29:32;7.77;;;3.43;;
3343;SDS011;1685;53.104;8.228;2023-04-03T05:31:59;6.63;;;2.83;;
3343;SDS011;1685;53.104;8.228;2023-04-03T05:34:27;3.47;;;3.20;;
3343;SDS011;1685;53.104;8.228;2023-04-03T05:36:54;5.47;;;3.07;;
3343;SDS011;1685;53.104;8.228;2023-04-03T05:39:20;6.00;;;3.30;;
3343;SDS011;1685;53.104;8.228;2023-04-03T05:41:47;7.50;;;3.37;;
3343;SDS011;1685;53.104;8.228;2023-04-03T05:44:14;5.17;;;3.93;;
3343;SDS011;1685;53.104;8.228;2023-04-03T05:46:42;8.30;;;3.77;;
3343;SDS011;1685;53.104;8.228;2023-04-03T05:49:08;5.57;;;3.30;;
3343;SDS011;1685;53.104;8.228;2023-04-03T05:51:37;3.60;;;3.30;;
3343;SDS011;1685;53.104;8.228;2023-04-03T05:54:06;6.83;;;3.37;;
3343;SDS011;1685;53.104;8.228;2023-04-03T05:56:36;5.83;;;4.00;;
3343;SDS011;1685;53.104;8.228;2023-04-03T05:59:03;7.33;;;3.70;;
3343;SDS011;1685;53.104;8.228;2023-04-03T06:01:29;9.90;;;3.47;;
3343;SDS011;1685;53.104;8.228;2023-04-03T06:03:56;8.40;;;3.50;;
3343;SDS011;1685;53.104;8.228;2023-04-03T06:06:23;8.23;;;3.30;;
3343;SDS011;1685;53.104;8.228;2023-04-03T06:08:51;7.13;;;4.20;;
3343;SDS011;1685;53.104;8.228;2023-04-03T06:11:18;3.67;;;3.27;;
3343;SDS011;1685;53.104;8.228;2023-04-03T06:13:46;5.33;;;3.20;;
3343;SDS011;1685;53.104;8.228;2023-04-03T06:16:13;7.20;;;3.33;;
3343;SDS011;1685;53.104;8.228;2023-04-03T06:18:41;4.40;;;3.67;;
3343;SDS011;1685;53.104;8.228;2023-04-03T06:21:07;5.57;;;3.90;;
3343;SDS011;1685;53.104;8.228;2023-04-03T06:23:34;7.20;;;3.73;;
3343;SDS011;1685;53.104;8.228;2023-04-03T06:26:03;7.50;;;5.00;;
3343;SDS011;1685;53.104;8.228;2023-04-03T06:28:30;6.20;;;3.27;;
3343;SDS011;1685;53.104;8.228;2023-04-03T06:30:57;7.93;;;4.60;;
3343;SDS011;1685;53.104;8.228;2023-04-03T06:33:24;9.63;;;3.60;;
3343;SDS011;1685;53.104;8.228;2023-04-03T06:35:55;7.50;;;3.57;;
3343;SDS011;1685;53.104;8.228;2023-04-03T06:38:22;6.93;;;3.83;;
3343;SDS011;1685;53.104;8.228;2023-04-03T06:40:50;9.30;;;4.00;;
3343;SDS011;1685;53.104;8.228;2023-04-03T06:43:19;5.57;;;3.27;;
3343;SDS011;1685;53.104;8.228;2023-04-03T06:45:46;3.30;;;3.00;;
3343;SDS011;1685;53.104;8.228;2023-04-03T06:48:13;6.30;;;3.40;;
3343;SDS011;1685;53.104;8.228;2023-04-03T06:50:40;5.60;;;3.27;;
3343;SDS011;1685;53.104;8.228;2023-04-03T06:53:07;6.10;;;3.27;;
3343;SDS011;1685;53.104;8.228;2023-04-03T06:55:34;4.13;;;2.77;;
3343;SDS011;1685;53.104;8.228;2023-04-03T06:58:01;6.13;;;3.13;;
3343;SDS011;1685;53.104;8.228;2023-04-03T07:00:30;6.70;;;3.27;;
3343;SDS011;1685;53.104;8.228;2023-04-03T07:02:57;4.07;;;3.70;;
3343;SDS011;1685;53.104;8.228;2023-04-03T07:05:24;3.87;;;3.07;;
3343;SDS011;1685;53.104;8.228;2023-04-03T07:07:52;7.90;;;3.73;;
3343;SDS011;1685;53.104;8.228;2023-04-03T07:10:19;3.97;;;3.23;;
3343;SDS011;1685;53.104;8.228;2023-04-03T07:12:46;9.20;;;4.40;;
3343;SDS011;1685;53.104;8.228;2023-04-03T07:15:13;4.00;;;3.43;;
3343;SDS011;1685;53.104;8.228;2023-04-03T07:17:41;3.50;;;3.20;;
3343;SDS011;1685;53.104;8.228;2023-04-03T07:20:09;10.07;;;3.70;;
3343;SDS011;1685;53.104;8.228;2023-04-03T07:22:36;13.37;;;4.83;;
3343;SDS011;1685;53.104;8.228;2023-04-03T07:25:03;3.47;;;3.17;;
3343;SDS011;1685;53.104;8.228;2023-04-03T07:27:32;8.70;;;3.27;;
3343;SDS011;1685;53.104;8.228;2023-04-03T07:29:59;8.60;;;4.50;;
3343;SDS011;1685;53.104;8.228;2023-04-03T07:32:26;7.60;;;4.00;;
3343;SDS011;1685;53.104;8.228;2023-04-03T07:34:54;4.67;;;3.77;;
3343;SDS011;1685;53.104;8.228;2023-04-03T07:37:20;9.07;;;3.20;;
3343;SDS011;1685;53.104;8.228;2023-04-03T07:39:47;7.47;;;3.60;;
3343;SDS011;1685;53.104;8.228;2023-04-03T07:42:14;10.53;;;4.40;;
3343;SDS011;1685;53.104;8.228;2023-04-03T07:44:41;8.73;;;4.10;;
3343;SDS011;1685;53.104;8.228;2023-04-03T07:47:08;7.40;;;4.13;;
3343;SDS011;1685;53.104;8.228;2023-04-03T07:49:35;6.23;;;3.90;;
3343;SDS011;1685;53.104;8.228;2023-04-03T07:52:07;10.07;;;4.33;;
3343;SDS011;1685;53.104;8.228;2023-04-03T07:54:34;6.27;;;3.47;;
3343;SDS011;1685;53.104;8.228;2023-04-03T07:57:01;10.47;;;4.23;;
3343;SDS011;1685;53.104;8.228;2023-04-03T07:59:28;6.07;;;3.70;;
3343;SDS011;1685;53.104;8.228;2023-04-03T08:01:56;9.73;;;3.93;;
3343;SDS011;1685;53.104;8.228;2023-04-03T08:04:23;19.87;;;3.30;;
3343;SDS011;1685;53.104;8.228;2023-04-03T08:06:51;7.60;;;4.00;;
3343;SDS011;1685;53.104;8.228;2023-04-03T08:09:19;6.90;;;3.03;;
3343;SDS011;1685;53.104;8.228;2023-04-03T08:11:46;3.23;;;2.90;;
3343;SDS011;1685;53.104;8.228;2023-04-03T08:14:13;7.10;;;3.13;;
3343;SDS011;1685;53.104;8.228;2023-04-03T08:16:43;4.60;;;3.07;;
3343;SDS011;1685;53.104;8.228;2023-04-03T08:19:10;6.97;;;2.50;;
3343;SDS011;1685;53.104;8.228;2023-04-03T08:21:40;7.60;;;2.70;;
3343;SDS011;1685;53.104;8.228;2023-04-03T08:24:07;2.80;;;2.60;;
3343;SDS011;1685;53.104;8.228;2023-04-03T08:26:36;5.57;;;2.33;;
3343;SDS011;1685;53.104;8.228;2023-04-03T08:29:03;4.20;;;2.50;;
3343;SDS011;1685;53.104;8.228;2023-04-03T08:31:30;10.20;;;1.93;;
3343;SDS011;1685;53.104;8.228;2023-04-03T08:33:57;2.53;;;1.80;;
3343;SDS011;1685;53.104;8.228;2023-04-03T08:36:26;11.53;;;2.73;;
3343;SDS011;1685;53.104;8.228;2023-04-03T08:38:54;4.87;;;2.20;;
3343;SDS011;1685;53.104;8.228;2023-04-03T08:41:25;3.37;;;2.37;;
3343;SDS011;1685;53.104;8.228;2023-04-03T08:43:59;6.17;;;2.10;;
3343;SDS011;1685;53.104;8.228;2023-04-03T08:49:31;11.23;;;2.73;;
3343;SDS011;1685;53.104;8.228;2023-04-03T08:52:02;2.17;;;1.97;;
3343;SDS011;1685;53.104;8.228;2023-04-03T08:54:32;6.27;;;1.97;;
3343;SDS011;1685;53.104;8.228;2023-04-03T08:57:02;4.70;;;2.00;;
3343;SDS011;1685;53.104;8.228;2023-04-03T08:59:33;2.47;;;1.87;;
3343;SDS011;1685;53.104;8.228;2023-04-03T09:02:04;4.00;;;1.57;;
3343;SDS011;1685;53.104;8.228;2023-04-03T09:04:39;2.43;;;2.23;;
3343;SDS011;1685;53.104;8.228;2023-04-03T09:07:07;2.73;;;1.70;;
3343;SDS011;1685;53.104;8.228;2023-04-03T09:09:51;6.43;;;1.80;;
3343;SDS011;1685;53.104;8.228;2023-04-03T09:12:19;1.87;;;1.77;;
3343;SDS011;1685;53.104;8.228;2023-04-03T09:14:55;3.00;;;1.40;;
3343;SDS011;1685;53.104;8.228;2023-04-03T09:17:35;4.57;;;2.10;;
3343;SDS011;1685;53.104;8.228;2023-04-03T09:20:11;1.77;;;1.40;;
3343;SDS011;1685;53.104;8.228;2023-04-03T09:22:45;2.40;;;1.60;;
3343;SDS011;1685;53.104;8.228;2023-04-03T09:25:14;6.00;;;1.87;;
3343;SDS011;1685;53.104;8.228;2023-04-03T09:27:43;5.17;;;1.60;;
3343;SDS011;1685;53.104;8.228;2023-04-03T09:30:13;3.80;;;2.03;;
3343;SDS011;1685;53.104;8.228;2023-04-03T09:32:43;2.30;;;1.97;;
3343;SDS011;1685;53.104;8.228;2023-04-03T09:35:16;2.63;;;1.73;;
3343;SDS011;1685;53.104;8.228;2023-04-03T09:37:47;2.73;;;2.07;;
3343;SDS011;1685;53.104;8.228;2023-04-03T09:40:30;2.63;;;2.20;;
3343;SDS011;1685;53.104;8.228;2023-04-03T09:43:00;3.67;;;2.30;;
3343;SDS011;1685;53.104;8.228;2023-04-03T09:45:31;4.10;;;1.53;;
3343;SDS011;1685;53.104;8.228;2023-04-03T09:48:06;1.73;;;1.33;;
3343;SDS011;1685;53.104;8.228;2023-04-03T09:50:35;1.67;;;1.57;;
3343;SDS011;1685;53.104;8.228;2023-04-03T09:53:04;3.30;;;1.73;;
3343;SDS011;1685;53.104;8.228;2023-04-03T09:55:33;1.47;;;1.37;;
3343;SDS011;1685;53.104;8.228;2023-04-03T09:58:22;1.43;;;1.33;;
3343;SDS011;1685;53.104;8.228;2023-04-03T10:00:55;3.30;;;1.70;;
3343;SDS011;1685;53.104;8.228;2023-04-03T10:03:24;3.40;;;1.63;;
3343;SDS011;1685;53.104;8.228;2023-04-03T10:05:55;3.30;;;2.03;;
3343;SDS011;1685;53.104;8.228;2023-04-03T10:08:24;3.47;;;1.80;;
3343;SDS011;1685;53.104;8.228;2023-04-03T10:11:11;2.63;;;1.73;;
3343;SDS011;1685;53.104;8.228;2023-04-03T10:13:49;3.00;;;1.37;;
3343;SDS011;1685;53.104;8.228;2023-04-03T10:16:19;1.33;;;1.20;;
3343;SDS011;1685;53.104;8.228;2023-04-03T10:18:51;2.87;;;1.30;;
3343;SDS011;1685;53.104;8.228;2023-04-03T10:21:29;6.50;;;1.73;;
3343;SDS011;1685;53.104;8.228;2023-04-03T10:24:06;11.63;;;1.77;;
3343;SDS011;1685;53.104;8.228;2023-04-03T10:26:40;10.27;;;1.57;;
3343;SDS011;1685;53.104;8.228;2023-04-03T10:29:18;2.00;;;1.33;;
3343;SDS011;1685;53.104;8.228;2023-04-03T10:31:59;4.20;;;1.20;;
3343;SDS011;1685;53.104;8.228;2023-04-03T10:34:40;3.43;;;1.40;;
3343;SDS011;1685;53.104;8.228;2023-04-03T10:37:11;4.03;;;1.40;;
3343;SDS011;1685;53.104;8.228;2023-04-03T10:39:47;2.10;;;1.33;;
3343;SDS011;1685;53.104;8.228;2023-04-03T10:42:21;1.97;;;1.77;;
3343;SDS011;1685;53.104;8.228;2023-04-03T10:47:50;3.77;;;1.80;;
3343;SDS011;1685;53.104;8.228;2023-04-03T10:50:38;7.43;;;1.90;;
3343;SDS011;1685;53.104;8.228;2023-04-03T10:53:12;2.60;;;2.40;;
3343;SDS011;1685;53.104;8.228;2023-04-03T10:55:50;4.97;;;1.67;;
3343;SDS011;1685;53.104;8.228;2023-04-03T10:58:25;3.93;;;1.63;;
3343;SDS011;1685;53.104;8.228;2023-04-03T11:00:57;5.60;;;1.50;;
3343;SDS011;1685;53.104;8.228;2023-04-03T11:03:31;3.63;;;1.50;;
3343;SDS011;1685;53.104;8.228;2023-04-03T11:06:02;1.57;;;1.00;;
3343;SDS011;1685;53.104;8.228;2023-04-03T11:08:34;3.73;;;1.73;;
3343;SDS011;1685;53.104;8.228;2023-04-03T11:11:06;1.20;;;1.13;;
3343;SDS011;1685;53.104;8.228;2023-04-03T11:13:36;5.33;;;1.37;;
3343;SDS011;1685;53.104;8.228;2023-04-03T11:16:07;6.30;;;1.90;;
3343;SDS011;1685;53.104;8.228;2023-04-03T11:18:37;1.60;;;1.50;;
3343;SDS011;1685;53.104;8.228;2023-04-03T11:21:11;3.23;;;1.00;;
3343;SDS011;1685;53.104;8.228;2023-04-03T11:23:43;2.50;;;1.67;;
3343;SDS011;1685;53.104;8.228;2023-04-03T11:26:12;3.40;;;1.40;;
3343;SDS011;1685;53.104;8.228;2023-04-03T11:28:40;1.43;;;1.33;;
3343;SDS011;1685;53.104;8.228;2023-04-03T11:31:13;2.00;;;1.60;;
3343;SDS011;1685;53.104;8.228;2023-04-03T11:33:54;4.73;;;1.53;;
3343;SDS011;1685;53.104;8.228;2023-04-03T11:36:29;1.70;;;1.60;;
3343;SDS011;1685;53.104;8.228;2023-04-03T11:38:59;1.50;;;1.40;;
3343;SDS011;1685;53.104;8.228;2023-04-03T11:41:44;1.97;;;1.70;;
3343;SDS011;1685;53.104;8.228;2023-04-03T11:44:25;1.63;;;1.30;;
3343;SDS011;1685;53.104;8.228;2023-04-03T11:47:01;1.90;;;1.57;;
3343;SDS011;1685;53.104;8.228;2023-04-03T11:58:13;2.33;;;1.40;;
3343;SDS011;1685;53.104;8.228;2023-04-03T12:12:41;2.03;;;1.40;;
3343;SDS011;1685;53.104;8.228;2023-04-03T12:15:24;2.60;;;1.63;;
3343;SDS011;1685;53.104;8.228;2023-04-03T12:21:15;2.10;;;1.37;;
3343;SDS011;1685;53.104;8.228;2023-04-03T12:23:57;3.30;;;2.10;;
3343;SDS011;1685;53.104;8.228;2023-04-03T12:26:28;3.33;;;1.70;;
3343;SDS011;1685;53.104;8.228;2023-04-03T12:29:01;2.00;;;1.10;;
3343;SDS011;1685;53.104;8.228;2023-04-03T12:31:37;3.07;;;1.97;;
3343;SDS011;1685;53.104;8.228;2023-04-03T12:34:18;1.53;;;1.27;;
3343;SDS011;1685;53.104;8.228;2023-04-03T12:36:57;2.83;;;1.43;;
3343;SDS011;1685;53.104;8.228;2023-04-03T12:39:48;3.60;;;1.20;;
3343;SDS011;1685;53.104;8.228;2023-04-03T12:42:26;1.40;;;1.20;;
3343;SDS011;1685;53.104;8.228;2023-04-03T12:45:09;2.07;;;1.40;;
3343;SDS011;1685;53.104;8.228;2023-04-03T12:47:43;2.00;;;1.53;;
3343;SDS011;1685;53.104;8.228;2023-04-03T12:50:18;3.10;;;1.50;;
3343;SDS011;1685;53.104;8.228;2023-04-03T12:52:50;1.10;;;1.10;;
3343;SDS011;1685;53.104;8.228;2023-04-03T12:55:21;1.50;;;1.20;;
3343;SDS011;1685;53.104;8.228;2023-04-03T12:57:50;2.50;;;1.40;;
3343;SDS011;1685;53.104;8.228;2023-04-03T13:00:22;2.67;;;1.60;;
3343;SDS011;1685;53.104;8.228;2023-04-03T13:02:59;1.47;;;1.30;;
3343;SDS011;1685;53.104;8.228;2023-04-03T13:05:27;1.27;;;1.17;;
3343;SDS011;1685;53.104;8.228;2023-04-03T13:07:56;1.70;;;1.23;;
3343;SDS011;1685;53.104;8.228;2023-04-03T13:10:26;3.63;;;1.70;;
3343;SDS011;1685;53.104;8.228;2023-04-03T13:12:56;6.00;;;1.73;;
3343;SDS011;1685;53.104;8.228;2023-04-03T13:15:25;2.73;;;1.23;;
3343;SDS011;1685;53.104;8.228;2023-04-03T13:17:53;2.60;;;1.27;;
3343;SDS011;1685;53.104;8.228;2023-04-03T13:20:22;1.80;;;1.70;;
3343;SDS011;1685;53.104;8.228;2023-04-03T13:22:52;5.40;;;1.80;;
3343;SDS011;1685;53.104;8.228;2023-04-03T13:25:23;1.70;;;1.40;;
3343;SDS011;1685;53.104;8.228;2023-04-03T13:27:52;5.30;;;1.73;;
3343;SDS011;1685;53.104;8.228;2023-04-03T13:30:23;3.27;;;1.57;;
3343;SDS011;1685;53.104;8.228;2023-04-03T13:32:53;2.00;;;1.80;;
3343;SDS011;1685;53.104;8.228;2023-04-03T13:35:27;2.63;;;1.47;;
3343;SDS011;1685;53.104;8.228;2023-04-03T13:37:57;1.93;;;1.27;;
3343;SDS011;1685;53.104;8.228;2023-04-03T13:40:25;1.87;;;1.30;;
3343;SDS011;1685;53.104;8.228;2023-04-03T13:43:00;1.40;;;1.30;;
3343;SDS011;1685;53.104;8.228;2023-04-03T13:45:33;1.13;;;1.13;;
3343;SDS011;1685;53.104;8.228;2023-04-03T13:48:07;4.23;;;1.57;;
3343;SDS011;1685;53.104;8.228;2023-04-03T13:50:50;1.93;;;1.70;;
3343;SDS011;1685;53.104;8.228;2023-04-03T13:53:20;1.77;;;1.50;;
3343;SDS011;1685;53.104;8.228;2023-04-03T13:55:55;7.50;;;1.90;;
3343;SDS011;1685;53.104;8.228;2023-04-03T13:58:24;3.57;;;1.47;;
3343;SDS011;1685;53.104;8.228;2023-04-03T14:00:55;4.37;;;1.70;;
3343;SDS011;1685;53.104;8.228;2023-04-03T14:03:28;2.63;;;1.47;;
3343;SDS011;1685;53.104;8.228;2023-04-03T14:05:57;3.47;;;1.50;;
3343;SDS011;1685;53.104;8.228;2023-04-03T14:08:24;2.17;;;1.60;;
3343;SDS011;1685;53.104;8.228;2023-04-03T14:10:52;1.30;;;1.20;;
3343;SDS011;1685;53.104;8.228;2023-04-03T14:13:20;1.80;;;1.70;;
3343;SDS011;1685;53.104;8.228;2023-04-03T14:15:47;0.90;;;0.90;;
3343;SDS011;1685;53.104;8.228;2023-04-03T14:18:17;2.03;;;1.50;;
3343;SDS011;1685;53.104;8.228;2023-04-03T14:20:46;6.90;;;1.80;;
3343;SDS011;1685;53.104;8.228;2023-04-03T14:23:13;1.60;;;1.50;;
3343;SDS011;1685;53.104;8.228;2023-04-03T14:25:40;1.53;;;1.27;;
3343;SDS011;1685;53.104;8.228;2023-04-03T14:28:12;3.53;;;1.40;;
3343;SDS011;1685;53.104;8.228;2023-04-03T14:30:43;1.63;;;1.53;;
3343;SDS011;1685;53.104;8.228;2023-04-03T14:33:12;1.57;;;1.47;;
3343;SDS011;1685;53.104;8.228;2023-04-03T14:35:42;2.40;;;2.10;;
3343;SDS011;1685;53.104;8.228;2023-04-03T14:38:12;1.27;;;1.27;;
3343;SDS011;1685;53.104;8.228;2023-04-03T14:40:50;3.13;;;1.73;;
3343;SDS011;1685;53.104;8.228;2023-04-03T14:43:17;1.80;;;1.70;;
3343;SDS011;1685;53.104;8.228;2023-04-03T14:45:45;2.10;;;1.40;;
3343;SDS011;1685;53.104;8.228;2023-04-03T14:48:12;2.17;;;1.40;;
3343;SDS011;1685;53.104;8.228;2023-04-03T14:50:45;3.67;;;2.33;;
3343;SDS011;1685;53.104;8.228;2023-04-03T14:53:14;2.33;;;1.80;;
3343;SDS011;1685;53.104;8.228;2023-04-03T14:55:41;4.40;;;1.73;;
3343;SDS011;1685;53.104;8.228;2023-04-03T14:58:11;7.87;;;3.40;;
3343;SDS011;1685;53.104;8.228;2023-04-03T15:00:39;3.30;;;2.50;;
3343;SDS011;1685;53.104;8.228;2023-04-03T15:03:08;2.17;;;1.50;;
3343;SDS011;1685;53.104;8.228;2023-04-03T15:05:39;2.40;;;1.80;;
3343;SDS011;1685;53.104;8.228;2023-04-03T15:08:09;2.00;;;1.60;;
3343;SDS011;1685;53.104;8.228;2023-04-03T15:10:44;2.07;;;1.87;;
3343;SDS011;1685;53.104;8.228;2023-04-03T15:13:11;3.37;;;1.70;;
3343;SDS011;1685;53.104;8.228;2023-04-03T15:15:39;4.53;;;1.60;;
3343;SDS011;1685;53.104;8.228;2023-04-03T15:18:06;4.13;;;1.90;;
3343;SDS011;1685;53.104;8.228;2023-04-03T15:20:33;4.10;;;2.07;;
3343;SDS011;1685;53.104;8.228;2023-04-03T15:23:00;4.43;;;2.73;;
3343;SDS011;1685;53.104;8.228;2023-04-03T15:25:29;1.17;;;1.17;;
3343;SDS011;1685;53.104;8.228;2023-04-03T15:27:56;3.03;;;1.53;;
3343;SDS011;1685;53.104;8.228;2023-04-03T15:30:24;2.33;;;1.43;;
3343;SDS011;1685;53.104;8.228;2023-04-03T15:32:51;1.40;;;1.30;;
3343;SDS011;1685;53.104;8.228;2023-04-03T15:35:18;3.43;;;1.83;;
3343;SDS011;1685;53.104;8.228;2023-04-03T15:37:45;2.00;;;1.17;;
3343;SDS011;1685;53.104;8.228;2023-04-03T15:40:13;3.60;;;1.30;;
3343;SDS011;1685;53.104;8.228;2023-04-03T15:42:41;1.30;;;1.20;;
3343;SDS011;1685;53.104;8.228;2023-04-03T15:45:08;6.87;;;1.80;;
3343;SDS011;1685;53.104;8.228;2023-04-03T15:47:35;3.70;;;1.70;;
3343;SDS011;1685;53.104;8.228;2023-04-03T15:50:03;2.20;;;1.30;;
3343;SDS011;1685;53.104;8.228;2023-04-03T15:52:31;9.17;;;4.00;;
3343;SDS011;1685;53.104;8.228;2023-04-03T15:54:58;4.90;;;2.20;;
3343;SDS011;1685;53.104;8.228;2023-04-03T15:57:25;2.20;;;1.60;;
3343;SDS011;1685;53.104;8.228;2023-04-03T15:59:53;1.60;;;1.50;;
3343;SDS011;1685;53.104;8.228;2023-04-03T16:02:19;3.50;;;1.80;;